sensor_id;sensor_type;location;lat;lon;timestamp;temperature;humidity
69324;DHT22;56470;47.350;8.718;2023-02-12T00:02:04;3.37;65.13
69324;DHT22;56470;47.350;8.718;2023-02-12T00:04:29;3.38;65.04
69324;DHT22;56470;47.350;8.718;2023-02-12T00:06:55;3.41;65.06
69324;DHT22;56470;47.350;8.718;2023-02-12T00:09:20;3.38;65.05
69324;DHT22;56470;47.350;8.718;2023-02-12T00:11:45;3.35;65.14
69324;DHT22;56470;47.350;8.718;2023-02-12T00:14:11;3.35;65.06
69324;DHT22;56470;47.350;8.718;2023-02-12T00:16:36;3.37;65.16
69324;DHT22;56470;47.350;8.718;2023-02-12T00:19:02;3.38;65.21
69324;DHT22;56470;47.350;8.718;2023-02-12T00:21:27;3.35;65.11
69324;DHT22;56470;47.350;8.718;2023-02-12T00:23:53;3.32;65.10
69324;DHT22;56470;47.350;8.718;2023-02-12T00:26:19;3.34;65.01
69324;DHT22;56470;47.350;8.718;2023-02-12T00:28:45;3.32;65.05
69324;DHT22;56470;47.350;8.718;2023-02-12T00:31:25;3.28;64.71
69324;DHT22;56470;47.350;8.718;2023-02-12T00:33:50;3.21;65.20
69324;DHT22;56470;47.350;8.718;2023-02-12T00:36:18;3.23;65.18
69324;DHT22;56470;47.350;8.718;2023-02-12T00:38:45;3.27;65.17
69324;DHT22;56470;47.350;8.718;2023-02-12T00:41:14;3.34;65.03
69324;DHT22;56470;47.350;8.718;2023-02-12T00:43:39;3.32;65.03
69324;DHT22;56470;47.350;8.718;2023-02-12T00:46:05;3.35;64.95
69324;DHT22;56470;47.350;8.718;2023-02-12T00:48:32;3.35;65.04
69324;DHT22;56470;47.350;8.718;2023-02-12T00:50:57;3.32;65.12
69324;DHT22;56470;47.350;8.718;2023-02-12T00:53:23;3.31;65.08
69324;DHT22;56470;47.350;8.718;2023-02-12T00:55:48;3.24;64.98
69324;DHT22;56470;47.350;8.718;2023-02-12T00:58:13;3.18;64.89
69324;DHT22;56470;47.350;8.718;2023-02-12T01:00:40;3.16;65.07
69324;DHT22;56470;47.350;8.718;2023-02-12T01:03:06;3.16;65.15
69324;DHT22;56470;47.350;8.718;2023-02-12T01:05:32;3.14;65.16
69324;DHT22;56470;47.350;8.718;2023-02-12T01:07:57;3.17;65.28
69324;DHT22;56470;47.350;8.718;2023-02-12T01:10:22;3.16;65.26
69324;DHT22;56470;47.350;8.718;2023-02-12T01:12:48;3.13;65.25
69324;DHT22;56470;47.350;8.718;2023-02-12T01:15:14;3.09;65.24
69324;DHT22;56470;47.350;8.718;2023-02-12T01:17:40;3.09;65.35
69324;DHT22;56470;47.350;8.718;2023-02-12T01:20:10;3.07;65.31
69324;DHT22;56470;47.350;8.718;2023-02-12T01:22:38;3.06;65.35
69324;DHT22;56470;47.350;8.718;2023-02-12T01:25:05;3.06;65.47
69324;DHT22;56470;47.350;8.718;2023-02-12T01:27:31;3.10;65.50
69324;DHT22;56470;47.350;8.718;2023-02-12T01:29:56;3.09;65.40
69324;DHT22;56470;47.350;8.718;2023-02-12T01:32:22;3.06;65.43
69324;DHT22;56470;47.350;8.718;2023-02-12T01:34:47;3.10;65.38
69324;DHT22;56470;47.350;8.718;2023-02-12T01:37:13;3.06;65.32
69324;DHT22;56470;47.350;8.718;2023-02-12T01:39:38;3.04;65.48
69324;DHT22;56470;47.350;8.718;2023-02-12T01:42:04;3.04;65.41
69324;DHT22;56470;47.350;8.718;2023-02-12T01:44:32;3.03;65.38
69324;DHT22;56470;47.350;8.718;2023-02-12T01:47:02;3.03;65.42
69324;DHT22;56470;47.350;8.718;2023-02-12T01:49:40;3.03;65.31
69324;DHT22;56470;47.350;8.718;2023-02-12T01:52:23;3.03;65.33
69324;DHT22;56470;47.350;8.718;2023-02-12T01:54:50;3.03;65.09
69324;DHT22;56470;47.350;8.718;2023-02-12T01:57:17;2.95;65.23
69324;DHT22;56470;47.350;8.718;2023-02-12T01:59:44;2.90;65.15
69324;DHT22;56470;47.350;8.718;2023-02-12T02:02:11;2.81;65.39
69324;DHT22;56470;47.350;8.718;2023-02-12T02:04:44;2.69;65.42
69324;DHT22;56470;47.350;8.718;2023-02-12T02:07:10;2.65;65.69
69324;DHT22;56470;47.350;8.718;2023-02-12T02:09:38;2.64;65.78
69324;DHT22;56470;47.350;8.718;2023-02-12T02:12:04;2.68;65.82
69324;DHT22;56470;47.350;8.718;2023-02-12T02:14:50;2.66;65.74
69324;DHT22;56470;47.350;8.718;2023-02-12T02:28:32;2.68;66.21
69324;DHT22;56470;47.350;8.718;2023-02-12T02:31:16;2.75;65.82
69324;DHT22;56470;47.350;8.718;2023-02-12T02:39:41;2.78;65.65
69324;DHT22;56470;47.350;8.718;2023-02-12T02:44:51;2.71;65.55
69324;DHT22;56470;47.350;8.718;2023-02-12T02:47:20;2.69;65.45
69324;DHT22;56470;47.350;8.718;2023-02-12T02:49:53;2.59;65.50
69324;DHT22;56470;47.350;8.718;2023-02-12T02:52:25;2.61;65.72
69324;DHT22;56470;47.350;8.718;2023-02-12T02:54:56;2.61;65.64
69324;DHT22;56470;47.350;8.718;2023-02-12T02:57:28;2.56;65.53
69324;DHT22;56470;47.350;8.718;2023-02-12T02:59:59;2.51;65.70
69324;DHT22;56470;47.350;8.718;2023-02-12T03:02:31;2.44;66.07
69324;DHT22;56470;47.350;8.718;2023-02-12T03:05:01;2.47;66.09
69324;DHT22;56470;47.350;8.718;2023-02-12T03:07:32;2.51;66.06
69324;DHT22;56470;47.350;8.718;2023-02-12T03:10:04;2.52;66.00
69324;DHT22;56470;47.350;8.718;2023-02-12T03:12:34;2.55;65.91
69324;DHT22;56470;47.350;8.718;2023-02-12T03:15:08;2.56;65.85
69324;DHT22;56470;47.350;8.718;2023-02-12T03:17:38;2.56;65.70
69324;DHT22;56470;47.350;8.718;2023-02-12T03:20:13;2.52;65.73
69324;DHT22;56470;47.350;8.718;2023-02-12T03:22:46;2.52;65.84
69324;DHT22;56470;47.350;8.718;2023-02-12T03:25:20;2.54;65.91
69324;DHT22;56470;47.350;8.718;2023-02-12T03:27:55;2.56;65.65
69324;DHT22;56470;47.350;8.718;2023-02-12T03:30:24;2.48;65.70
69324;DHT22;56470;47.350;8.718;2023-02-12T03:33:07;2.42;65.96
69324;DHT22;56470;47.350;8.718;2023-02-12T03:35:39;2.44;66.03
69324;DHT22;56470;47.350;8.718;2023-02-12T03:44:27;2.47;65.91
69324;DHT22;56470;47.350;8.718;2023-02-12T03:49:10;2.47;65.99
69324;DHT22;56470;47.350;8.718;2023-02-12T03:51:39;2.45;66.00
69324;DHT22;56470;47.350;8.718;2023-02-12T03:54:08;2.44;65.84
69324;DHT22;56470;47.350;8.718;2023-02-12T03:57:14;2.36;66.52
69324;DHT22;56470;47.350;8.718;2023-02-12T03:59:42;2.38;66.19
69324;DHT22;56470;47.350;8.718;2023-02-12T04:02:08;2.36;66.22
69324;DHT22;56470;47.350;8.718;2023-02-12T04:04:33;2.33;66.13
69324;DHT22;56470;47.350;8.718;2023-02-12T04:06:59;2.33;66.32
69324;DHT22;56470;47.350;8.718;2023-02-12T04:09:25;2.28;66.14
69324;DHT22;56470;47.350;8.718;2023-02-12T04:12:01;2.28;66.24
69324;DHT22;56470;47.350;8.718;2023-02-12T04:27:58;2.21;66.36
69324;DHT22;56470;47.350;8.718;2023-02-12T04:30:34;2.19;66.09
69324;DHT22;56470;47.350;8.718;2023-02-12T04:33:03;2.20;66.37
69324;DHT22;56470;47.350;8.718;2023-02-12T04:35:34;2.20;66.23
69324;DHT22;56470;47.350;8.718;2023-02-12T04:38:33;2.17;66.22
69324;DHT22;56470;47.350;8.718;2023-02-12T04:41:01;2.17;66.15
69324;DHT22;56470;47.350;8.718;2023-02-12T04:43:30;2.11;66.14
69324;DHT22;56470;47.350;8.718;2023-02-12T04:45:56;2.07;66.29
69324;DHT22;56470;47.350;8.718;2023-02-12T04:48:21;2.05;66.41
69324;DHT22;56470;47.350;8.718;2023-02-12T04:50:47;1.99;66.07
69324;DHT22;56470;47.350;8.718;2023-02-12T04:53:13;1.93;66.62
69324;DHT22;56470;47.350;8.718;2023-02-12T04:55:38;2.02;66.79
69324;DHT22;56470;47.350;8.718;2023-02-12T04:58:04;2.07;66.61
69324;DHT22;56470;47.350;8.718;2023-02-12T05:00:30;2.05;66.69
69324;DHT22;56470;47.350;8.718;2023-02-12T05:02:55;2.10;66.50
69324;DHT22;56470;47.350;8.718;2023-02-12T05:05:21;2.02;66.35
69324;DHT22;56470;47.350;8.718;2023-02-12T05:07:47;2.00;66.43
69324;DHT22;56470;47.350;8.718;2023-02-12T05:10:12;1.98;66.42
69324;DHT22;56470;47.350;8.718;2023-02-12T05:12:38;2.00;66.49
69324;DHT22;56470;47.350;8.718;2023-02-12T05:15:03;1.99;66.56
69324;DHT22;56470;47.350;8.718;2023-02-12T05:17:28;1.99;66.69
69324;DHT22;56470;47.350;8.718;2023-02-12T05:19:54;1.98;66.67
69324;DHT22;56470;47.350;8.718;2023-02-12T05:22:19;1.96;66.80
69324;DHT22;56470;47.350;8.718;2023-02-12T05:24:45;1.96;66.80
69324;DHT22;56470;47.350;8.718;2023-02-12T05:27:11;2.00;66.78
69324;DHT22;56470;47.350;8.718;2023-02-12T05:29:36;1.98;66.71
69324;DHT22;56470;47.350;8.718;2023-02-12T05:32:02;2.02;66.69
69324;DHT22;56470;47.350;8.718;2023-02-12T05:34:27;1.99;66.69
69324;DHT22;56470;47.350;8.718;2023-02-12T05:36:52;1.96;66.82
69324;DHT22;56470;47.350;8.718;2023-02-12T05:39:18;1.96;66.66
69324;DHT22;56470;47.350;8.718;2023-02-12T05:41:43;1.95;66.75
69324;DHT22;56470;47.350;8.718;2023-02-12T05:44:08;1.95;66.90
69324;DHT22;56470;47.350;8.718;2023-02-12T05:46:36;1.93;66.81
69324;DHT22;56470;47.350;8.718;2023-02-12T05:49:02;1.85;66.69
69324;DHT22;56470;47.350;8.718;2023-02-12T05:51:28;1.65;66.87
69324;DHT22;56470;47.350;8.718;2023-02-12T05:53:58;1.48;67.07
69324;DHT22;56470;47.350;8.718;2023-02-12T05:56:30;1.44;67.30
69324;DHT22;56470;47.350;8.718;2023-02-12T05:59:00;1.46;67.43
69324;DHT22;56470;47.350;8.718;2023-02-12T06:01:36;1.46;67.50
69324;DHT22;56470;47.350;8.718;2023-02-12T06:04:04;1.44;67.63
69324;DHT22;56470;47.350;8.718;2023-02-12T06:06:33;1.41;67.66
69324;DHT22;56470;47.350;8.718;2023-02-12T06:08:59;1.44;67.97
69324;DHT22;56470;47.350;8.718;2023-02-12T06:11:25;1.47;67.96
69324;DHT22;56470;47.350;8.718;2023-02-12T06:13:51;1.47;67.87
69324;DHT22;56470;47.350;8.718;2023-02-12T06:16:23;1.51;67.76
69324;DHT22;56470;47.350;8.718;2023-02-12T06:18:49;1.48;67.99
69324;DHT22;56470;47.350;8.718;2023-02-12T06:21:16;1.50;67.80
69324;DHT22;56470;47.350;8.718;2023-02-12T06:23:42;1.47;67.91
69324;DHT22;56470;47.350;8.718;2023-02-12T06:26:07;1.50;67.88
69324;DHT22;56470;47.350;8.718;2023-02-12T06:28:33;1.51;67.99
69324;DHT22;56470;47.350;8.718;2023-02-12T06:30:58;1.51;67.98
69324;DHT22;56470;47.350;8.718;2023-02-12T06:33:24;1.55;68.09
69324;DHT22;56470;47.350;8.718;2023-02-12T06:35:49;1.59;68.07
69324;DHT22;56470;47.350;8.718;2023-02-12T06:38:15;1.64;67.97
69324;DHT22;56470;47.350;8.718;2023-02-12T06:40:40;1.61;67.87
69324;DHT22;56470;47.350;8.718;2023-02-12T06:43:06;1.64;67.90
69324;DHT22;56470;47.350;8.718;2023-02-12T06:45:32;1.66;67.76
69324;DHT22;56470;47.350;8.718;2023-02-12T06:47:57;1.65;67.51
69324;DHT22;56470;47.350;8.718;2023-02-12T06:50:23;1.61;67.61
69324;DHT22;56470;47.350;8.718;2023-02-12T06:52:48;1.59;67.58
69324;DHT22;56470;47.350;8.718;2023-02-12T06:55:14;1.55;67.62
69324;DHT22;56470;47.350;8.718;2023-02-12T06:57:40;1.54;67.96
69324;DHT22;56470;47.350;8.718;2023-02-12T07:00:06;1.57;67.93
69324;DHT22;56470;47.350;8.718;2023-02-12T07:02:31;1.59;67.97
69324;DHT22;56470;47.350;8.718;2023-02-12T07:04:57;1.64;68.06
69324;DHT22;56470;47.350;8.718;2023-02-12T07:07:22;1.72;68.27
69324;DHT22;56470;47.350;8.718;2023-02-12T07:09:47;1.78;68.19
69324;DHT22;56470;47.350;8.718;2023-02-12T07:12:13;1.92;68.22
69324;DHT22;56470;47.350;8.718;2023-02-12T07:14:38;2.06;68.05
69324;DHT22;56470;47.350;8.718;2023-02-12T07:17:04;2.20;67.86
69324;DHT22;56470;47.350;8.718;2023-02-12T07:19:29;2.33;67.58
69324;DHT22;56470;47.350;8.718;2023-02-12T07:21:55;2.51;67.39
69324;DHT22;56470;47.350;8.718;2023-02-12T07:24:21;2.69;67.05
69324;DHT22;56470;47.350;8.718;2023-02-12T07:26:49;2.85;66.75
69324;DHT22;56470;47.350;8.718;2023-02-12T07:29:15;3.01;66.55
69324;DHT22;56470;47.350;8.718;2023-02-12T07:31:41;3.17;66.38
69324;DHT22;56470;47.350;8.718;2023-02-12T07:34:06;3.30;65.74
69324;DHT22;56470;47.350;8.718;2023-02-12T07:36:32;3.38;65.81
69324;DHT22;56470;47.350;8.718;2023-02-12T07:38:58;3.50;65.70
69324;DHT22;56470;47.350;8.718;2023-02-12T07:41:25;3.65;65.49
69324;DHT22;56470;47.350;8.718;2023-02-12T07:43:59;3.83;65.28
69324;DHT22;56470;47.350;8.718;2023-02-12T07:46:27;4.03;65.03
69324;DHT22;56470;47.350;8.718;2023-02-12T07:49:01;4.28;64.67
69324;DHT22;56470;47.350;8.718;2023-02-12T07:51:28;4.45;64.43
69324;DHT22;56470;47.350;8.718;2023-02-12T07:53:54;4.65;64.00
69324;DHT22;56470;47.350;8.718;2023-02-12T07:56:22;4.75;63.70
69324;DHT22;56470;47.350;8.718;2023-02-12T07:58:52;4.81;63.41
69324;DHT22;56470;47.350;8.718;2023-02-12T08:01:23;4.93;63.29
69324;DHT22;56470;47.350;8.718;2023-02-12T08:03:50;5.08;63.20
69324;DHT22;56470;47.350;8.718;2023-02-12T08:06:19;5.21;62.95
69324;DHT22;56470;47.350;8.718;2023-02-12T08:08:57;5.36;62.75
69324;DHT22;56470;47.350;8.718;2023-02-12T08:11:24;5.48;62.55
69324;DHT22;56470;47.350;8.718;2023-02-12T08:13:50;5.60;62.46
69324;DHT22;56470;47.350;8.718;2023-02-12T08:16:21;5.74;62.36
69324;DHT22;56470;47.350;8.718;2023-02-12T08:18:47;5.85;62.19
69324;DHT22;56470;47.350;8.718;2023-02-12T08:21:15;5.98;62.28
69324;DHT22;56470;47.350;8.718;2023-02-12T08:23:41;6.08;61.99
69324;DHT22;56470;47.350;8.718;2023-02-12T08:26:13;6.22;62.01
69324;DHT22;56470;47.350;8.718;2023-02-12T08:28:50;6.38;61.49
69324;DHT22;56470;47.350;8.718;2023-02-12T08:31:21;6.49;61.37
69324;DHT22;56470;47.350;8.718;2023-02-12T08:33:47;6.62;61.09
69324;DHT22;56470;47.350;8.718;2023-02-12T08:36:16;6.69;60.77
69324;DHT22;56470;47.350;8.718;2023-02-12T08:38:42;6.77;60.43
69324;DHT22;56470;47.350;8.718;2023-02-12T08:41:10;6.83;60.24
69324;DHT22;56470;47.350;8.718;2023-02-12T08:43:37;6.87;59.88
69324;DHT22;56470;47.350;8.718;2023-02-12T08:46:05;6.93;60.08
69324;DHT22;56470;47.350;8.718;2023-02-12T08:48:31;6.98;59.99
69324;DHT22;56470;47.350;8.718;2023-02-12T08:51:03;7.08;59.61
69324;DHT22;56470;47.350;8.718;2023-02-12T08:53:29;7.15;59.21
69324;DHT22;56470;47.350;8.718;2023-02-12T08:55:55;7.19;59.31
69324;DHT22;56470;47.350;8.718;2023-02-12T08:58:20;7.25;58.90
69324;DHT22;56470;47.350;8.718;2023-02-12T09:00:45;7.35;58.98
69324;DHT22;56470;47.350;8.718;2023-02-12T09:03:10;7.39;58.64
69324;DHT22;56470;47.350;8.718;2023-02-12T09:05:40;7.48;58.46
69324;DHT22;56470;47.350;8.718;2023-02-12T09:08:06;7.52;58.23
69324;DHT22;56470;47.350;8.718;2023-02-12T09:10:39;7.58;58.00
69324;DHT22;56470;47.350;8.718;2023-02-12T09:13:06;7.67;57.64
69324;DHT22;56470;47.350;8.718;2023-02-12T09:15:39;7.67;57.66
69324;DHT22;56470;47.350;8.718;2023-02-12T09:18:04;7.70;57.59
69324;DHT22;56470;47.350;8.718;2023-02-12T09:20:30;7.70;57.83
69324;DHT22;56470;47.350;8.718;2023-02-12T09:22:59;7.70;58.01
69324;DHT22;56470;47.350;8.718;2023-02-12T09:25:25;7.80;57.62
69324;DHT22;56470;47.350;8.718;2023-02-12T09:27:51;7.87;56.97
69324;DHT22;56470;47.350;8.718;2023-02-12T09:30:16;7.83;57.24
69324;DHT22;56470;47.350;8.718;2023-02-12T09:32:42;7.77;57.43
69324;DHT22;56470;47.350;8.718;2023-02-12T09:35:07;7.71;57.54
69324;DHT22;56470;47.350;8.718;2023-02-12T09:37:33;7.63;57.85
69324;DHT22;56470;47.350;8.718;2023-02-12T09:39:58;7.69;58.35
69324;DHT22;56470;47.350;8.718;2023-02-12T09:42:25;7.77;57.96
69324;DHT22;56470;47.350;8.718;2023-02-12T09:45:16;7.74;57.38
69324;DHT22;56470;47.350;8.718;2023-02-12T09:47:50;7.84;57.84
69324;DHT22;56470;47.350;8.718;2023-02-12T09:50:29;7.99;58.00
69324;DHT22;56470;47.350;8.718;2023-02-12T09:52:58;8.16;57.83
69324;DHT22;56470;47.350;8.718;2023-02-12T09:55:28;8.35;57.35
69324;DHT22;56470;47.350;8.718;2023-02-12T09:57:53;8.43;57.11
69324;DHT22;56470;47.350;8.718;2023-02-12T10:00:29;8.56;56.76
69324;DHT22;56470;47.350;8.718;2023-02-12T10:02:59;8.54;56.15
69324;DHT22;56470;47.350;8.718;2023-02-12T10:05:30;8.39;56.43
69324;DHT22;56470;47.350;8.718;2023-02-12T10:08:21;8.31;56.38
69324;DHT22;56470;47.350;8.718;2023-02-12T10:21:38;8.46;56.29
69324;DHT22;56470;47.350;8.718;2023-02-12T10:27:02;8.64;56.53
69324;DHT22;56470;47.350;8.718;2023-02-12T10:29:33;8.70;56.03
69324;DHT22;56470;47.350;8.718;2023-02-12T10:32:25;8.61;55.27
69324;DHT22;56470;47.350;8.718;2023-02-12T10:34:52;8.46;55.83
69324;DHT22;56470;47.350;8.718;2023-02-12T10:40:04;8.33;56.24
69324;DHT22;56470;47.350;8.718;2023-02-12T10:45:01;8.24;56.31
69324;DHT22;56470;47.350;8.718;2023-02-12T10:47:26;8.22;56.56
69324;DHT22;56470;47.350;8.718;2023-02-12T10:49:58;8.21;56.55
69324;DHT22;56470;47.350;8.718;2023-02-12T10:54:58;8.09;56.46
69324;DHT22;56470;47.350;8.718;2023-02-12T10:57:29;8.01;56.95
69324;DHT22;56470;47.350;8.718;2023-02-12T10:59:56;7.99;56.96
69324;DHT22;56470;47.350;8.718;2023-02-12T11:02:37;7.95;56.98
69324;DHT22;56470;47.350;8.718;2023-02-12T11:05:22;7.90;56.88
69324;DHT22;56470;47.350;8.718;2023-02-12T11:07:49;7.90;57.01
69324;DHT22;56470;47.350;8.718;2023-02-12T11:10:27;7.81;57.03
69324;DHT22;56470;47.350;8.718;2023-02-12T11:12:53;7.83;57.29
69324;DHT22;56470;47.350;8.718;2023-02-12T11:15:23;7.78;57.36
69324;DHT22;56470;47.350;8.718;2023-02-12T11:18:00;7.74;57.33
69324;DHT22;56470;47.350;8.718;2023-02-12T11:20:36;7.67;57.60
69324;DHT22;56470;47.350;8.718;2023-02-12T11:23:06;7.60;57.85
69324;DHT22;56470;47.350;8.718;2023-02-12T11:26:20;7.60;57.82
69324;DHT22;56470;47.350;8.718;2023-02-12T11:28:56;7.59;58.02
69324;DHT22;56470;47.350;8.718;2023-02-12T11:31:31;7.62;58.08
69324;DHT22;56470;47.350;8.718;2023-02-12T11:36:45;7.56;58.38
69324;DHT22;56470;47.350;8.718;2023-02-12T11:39:29;7.56;58.67
69324;DHT22;56470;47.350;8.718;2023-02-12T11:42:02;7.53;58.73
69324;DHT22;56470;47.350;8.718;2023-02-12T11:44:47;7.53;58.86
69324;DHT22;56470;47.350;8.718;2023-02-12T11:47:22;7.50;59.06
69324;DHT22;56470;47.350;8.718;2023-02-12T11:49:54;7.58;59.14
69324;DHT22;56470;47.350;8.718;2023-02-12T11:52:26;7.59;59.12
69324;DHT22;56470;47.350;8.718;2023-02-12T11:54:56;7.58;59.37
69324;DHT22;56470;47.350;8.718;2023-02-12T12:02:43;7.56;59.69
69324;DHT22;56470;47.350;8.718;2023-02-12T12:05:15;7.58;59.73
69324;DHT22;56470;47.350;8.718;2023-02-12T12:07:52;7.58;59.81
69324;DHT22;56470;47.350;8.718;2023-02-12T12:10:40;7.58;59.98
69324;DHT22;56470;47.350;8.718;2023-02-12T12:13:16;7.62;59.92
69324;DHT22;56470;47.350;8.718;2023-02-12T12:15:51;7.60;60.00
69324;DHT22;56470;47.350;8.718;2023-02-12T12:18:46;7.66;60.12
69324;DHT22;56470;47.350;8.718;2023-02-12T12:24:14;7.70;59.42
69324;DHT22;56470;47.350;8.718;2023-02-12T12:26:45;7.73;59.64
69324;DHT22;56470;47.350;8.718;2023-02-12T12:29:24;7.76;59.00
69324;DHT22;56470;47.350;8.718;2023-02-12T12:31:59;7.80;58.60
69324;DHT22;56470;47.350;8.718;2023-02-12T12:34:26;7.91;58.47
69324;DHT22;56470;47.350;8.718;2023-02-12T12:40:06;7.95;57.59
69324;DHT22;56470;47.350;8.718;2023-02-12T12:43:01;7.94;57.12
69324;DHT22;56470;47.350;8.718;2023-02-12T12:59:09;8.08;58.52
69324;DHT22;56470;47.350;8.718;2023-02-12T13:07:23;8.15;58.31
69324;DHT22;56470;47.350;8.718;2023-02-12T13:10:12;8.22;58.00
69324;DHT22;56470;47.350;8.718;2023-02-12T13:15:58;8.24;58.15
69324;DHT22;56470;47.350;8.718;2023-02-12T13:21:27;8.28;58.50
69324;DHT22;56470;47.350;8.718;2023-02-12T13:26:53;8.32;58.81
69324;DHT22;56470;47.350;8.718;2023-02-12T13:29:23;8.32;58.91
69324;DHT22;56470;47.350;8.718;2023-02-12T13:31:54;8.35;58.73
69324;DHT22;56470;47.350;8.718;2023-02-12T13:34:21;8.36;58.70
69324;DHT22;56470;47.350;8.718;2023-02-12T13:36:48;8.39;58.76
69324;DHT22;56470;47.350;8.718;2023-02-12T13:44:56;8.46;59.12
69324;DHT22;56470;47.350;8.718;2023-02-12T13:47:32;8.50;59.20
69324;DHT22;56470;47.350;8.718;2023-02-12T13:53:00;8.57;59.32
69324;DHT22;56470;47.350;8.718;2023-02-12T14:01:03;8.68;59.38
69324;DHT22;56470;47.350;8.718;2023-02-12T14:03:30;8.74;59.39
69324;DHT22;56470;47.350;8.718;2023-02-12T14:06:16;8.76;59.54
69324;DHT22;56470;47.350;8.718;2023-02-12T14:08:47;8.78;59.51
69324;DHT22;56470;47.350;8.718;2023-02-12T14:11:16;8.80;59.65
69324;DHT22;56470;47.350;8.718;2023-02-12T14:13:50;8.78;59.69
69324;DHT22;56470;47.350;8.718;2023-02-12T14:16:22;8.80;59.78
69324;DHT22;56470;47.350;8.718;2023-02-12T14:19:38;8.94;59.91
69324;DHT22;56470;47.350;8.718;2023-02-12T14:22:10;9.00;59.57
69324;DHT22;56470;47.350;8.718;2023-02-12T14:27:16;8.97;59.32
69324;DHT22;56470;47.350;8.718;2023-02-12T14:35:41;9.00;59.56
69324;DHT22;56470;47.350;8.718;2023-02-12T14:43:30;8.94;59.87
69324;DHT22;56470;47.350;8.718;2023-02-12T14:45:58;9.01;59.92
69324;DHT22;56470;47.350;8.718;2023-02-12T14:51:40;8.94;60.35
69324;DHT22;56470;47.350;8.718;2023-02-12T14:54:29;8.98;60.33
69324;DHT22;56470;47.350;8.718;2023-02-12T14:56:59;8.97;60.63
69324;DHT22;56470;47.350;8.718;2023-02-12T14:59:26;8.98;60.80
69324;DHT22;56470;47.350;8.718;2023-02-12T15:01:58;9.01;60.70
69324;DHT22;56470;47.350;8.718;2023-02-12T15:04:27;9.02;60.83
69324;DHT22;56470;47.350;8.718;2023-02-12T15:06:58;9.04;61.06
69324;DHT22;56470;47.350;8.718;2023-02-12T15:09:56;9.01;61.93
69324;DHT22;56470;47.350;8.718;2023-02-12T15:12:30;9.01;61.52
69324;DHT22;56470;47.350;8.718;2023-02-12T15:15:10;9.04;61.28
69324;DHT22;56470;47.350;8.718;2023-02-12T15:17:39;9.07;61.65
69324;DHT22;56470;47.350;8.718;2023-02-12T15:20:23;9.05;62.05
69324;DHT22;56470;47.350;8.718;2023-02-12T15:22:49;9.14;62.06
69324;DHT22;56470;47.350;8.718;2023-02-12T15:25:29;9.10;62.41
69324;DHT22;56470;47.350;8.718;2023-02-12T15:28:00;9.15;62.27
69324;DHT22;56470;47.350;8.718;2023-02-12T15:30:30;9.19;62.27
69324;DHT22;56470;47.350;8.718;2023-02-12T15:33:00;9.19;62.30
69324;DHT22;56470;47.350;8.718;2023-02-12T15:35:30;9.19;62.33
69324;DHT22;56470;47.350;8.718;2023-02-12T15:37:57;9.18;62.71
69324;DHT22;56470;47.350;8.718;2023-02-12T15:40:24;9.19;62.67
69324;DHT22;56470;47.350;8.718;2023-02-12T15:42:53;9.19;62.65
69324;DHT22;56470;47.350;8.718;2023-02-12T15:45:27;9.21;62.76
69324;DHT22;56470;47.350;8.718;2023-02-12T15:48:12;9.19;63.79
69324;DHT22;56470;47.350;8.718;2023-02-12T15:51:07;9.22;64.09
69324;DHT22;56470;47.350;8.718;2023-02-12T15:53:34;9.25;63.13
69324;DHT22;56470;47.350;8.718;2023-02-12T15:56:01;9.26;62.94
69324;DHT22;56470;47.350;8.718;2023-02-12T15:58:37;9.26;63.18
69324;DHT22;56470;47.350;8.718;2023-02-12T16:01:05;9.25;63.13
69324;DHT22;56470;47.350;8.718;2023-02-12T16:03:33;9.25;63.24
69324;DHT22;56470;47.350;8.718;2023-02-12T16:06:05;9.22;63.34
69324;DHT22;56470;47.350;8.718;2023-02-12T16:08:39;9.22;63.25
69324;DHT22;56470;47.350;8.718;2023-02-12T16:11:06;9.26;63.37
69324;DHT22;56470;47.350;8.718;2023-02-12T16:13:42;9.23;63.59
69324;DHT22;56470;47.350;8.718;2023-02-12T16:18:34;9.22;63.57
69324;DHT22;56470;47.350;8.718;2023-02-12T16:21:11;9.18;63.76
69324;DHT22;56470;47.350;8.718;2023-02-12T16:23:37;9.19;63.69
69324;DHT22;56470;47.350;8.718;2023-02-12T16:26:03;9.14;63.73
69324;DHT22;56470;47.350;8.718;2023-02-12T16:28:29;9.16;63.54
69324;DHT22;56470;47.350;8.718;2023-02-12T16:31:10;9.12;64.09
69324;DHT22;56470;47.350;8.718;2023-02-12T16:44:07;9.02;62.66
69324;DHT22;56470;47.350;8.718;2023-02-12T16:46:45;8.98;62.32
69324;DHT22;56470;47.350;8.718;2023-02-12T16:49:16;8.97;62.43
69324;DHT22;56470;47.350;8.718;2023-02-12T16:51:42;8.97;62.40
69324;DHT22;56470;47.350;8.718;2023-02-12T16:54:43;8.92;62.26
69324;DHT22;56470;47.350;8.718;2023-02-12T16:57:10;8.94;62.34
69324;DHT22;56470;47.350;8.718;2023-02-12T16:59:35;8.91;62.29
69324;DHT22;56470;47.350;8.718;2023-02-12T17:02:10;8.87;62.27
69324;DHT22;56470;47.350;8.718;2023-02-12T17:04:35;8.84;62.36
69324;DHT22;56470;47.350;8.718;2023-02-12T17:07:01;8.80;62.39
69324;DHT22;56470;47.350;8.718;2023-02-12T17:09:26;8.76;62.44
69324;DHT22;56470;47.350;8.718;2023-02-12T17:11:54;8.73;62.44
69324;DHT22;56470;47.350;8.718;2023-02-12T17:14:20;8.71;62.66
69324;DHT22;56470;47.350;8.718;2023-02-12T17:19:55;8.60;62.66
69324;DHT22;56470;47.350;8.718;2023-02-12T17:22:32;8.54;62.56
69324;DHT22;56470;47.350;8.718;2023-02-12T17:25:39;8.45;63.88
69324;DHT22;56470;47.350;8.718;2023-02-12T17:28:10;8.43;63.12
69324;DHT22;56470;47.350;8.718;2023-02-12T17:40:16;8.25;63.27
69324;DHT22;56470;47.350;8.718;2023-02-12T17:46:25;8.15;63.09
69324;DHT22;56470;47.350;8.718;2023-02-12T17:52:53;8.05;63.57
69324;DHT22;56470;47.350;8.718;2023-02-12T17:59:03;7.99;63.50
69324;DHT22;56470;47.350;8.718;2023-02-12T18:01:41;7.98;63.39
69324;DHT22;56470;47.350;8.718;2023-02-12T18:07:49;7.73;63.14
69324;DHT22;56470;47.350;8.718;2023-02-12T18:11:04;7.62;63.36
69324;DHT22;56470;47.350;8.718;2023-02-12T18:13:51;7.59;63.27
69324;DHT22;56470;47.350;8.718;2023-02-12T18:19:55;7.48;63.34
69324;DHT22;56470;47.350;8.718;2023-02-12T18:22:52;7.39;63.98
69324;DHT22;56470;47.350;8.718;2023-02-12T18:25:59;7.39;63.86
69324;DHT22;56470;47.350;8.718;2023-02-12T18:55:51;6.88;64.56
69324;DHT22;56470;47.350;8.718;2023-02-12T18:58:16;6.84;64.53
69324;DHT22;56470;47.350;8.718;2023-02-12T19:00:42;6.83;64.52
69324;DHT22;56470;47.350;8.718;2023-02-12T19:03:07;6.81;64.46
69324;DHT22;56470;47.350;8.718;2023-02-12T19:05:32;6.83;64.54
69324;DHT22;56470;47.350;8.718;2023-02-12T19:07:58;6.80;64.80
69324;DHT22;56470;47.350;8.718;2023-02-12T19:10:23;6.79;64.56
69324;DHT22;56470;47.350;8.718;2023-02-12T19:12:49;6.72;64.77
69324;DHT22;56470;47.350;8.718;2023-02-12T19:15:15;6.69;64.76
69324;DHT22;56470;47.350;8.718;2023-02-12T19:17:40;6.65;64.86
69324;DHT22;56470;47.350;8.718;2023-02-12T19:20:06;6.65;65.01
69324;DHT22;56470;47.350;8.718;2023-02-12T19:22:32;6.65;65.22
69324;DHT22;56470;47.350;8.718;2023-02-12T19:24:57;6.60;65.06
69324;DHT22;56470;47.350;8.718;2023-02-12T19:27:23;6.59;65.16
69324;DHT22;56470;47.350;8.718;2023-02-12T19:29:48;6.62;65.08
69324;DHT22;56470;47.350;8.718;2023-02-12T19:32:13;6.56;65.07
69324;DHT22;56470;47.350;8.718;2023-02-12T19:34:39;6.56;65.12